Time;durP1;ratioP1;P1;durP2;ratioP2;P2;SDS_P1;SDS_P2;PMS_P1;PMS_P2;Temp;Humidity;BMP_temperature;BMP_pressure;BME280_temperature;BME280_humidity;BME280_pressure;Samples;Min_cycle;Max_cycle;Signal;HPM_P1;HPM_P2
2020/12/09 00:02:08;;;;;;;27.30;12.83;;;;;;;-4.86;88.52;97636.64;1769535;80;21506;-74
2020/12/09 00:04:44;;;;;;;33.93;14.40;;;;;;;-4.83;88.49;97642.92;1769526;81;21406;-74
2020/12/09 00:07:11;;;;;;;29.63;13.60;;;;;;;-4.81;88.36;97642.02;1769563;81;20910;-74
2020/12/09 00:09:38;;;;;;;30.13;15.23;;;;;;;-4.78;88.26;97642.86;1769498;80;20976;-74
2020/12/09 00:12:06;;;;;;;27.20;12.53;;;;;;;-4.79;88.27;97639.92;1769478;80;20992;-73
2020/12/09 00:14:33;;;;;;;32.83;17.73;;;;;;;-4.79;88.37;97647.53;1769530;79;21328;-73
2020/12/09 00:17:21;;;;;;;39.27;22.43;;;;;;;-4.86;88.52;97650.59;1769414;80;21169;-74
2020/12/09 00:19:48;;;;;;;32.10;16.30;;;;;;;-4.89;88.93;97659.51;1769531;81;21135;-73
2020/12/09 00:22:15;;;;;;;36.47;18.60;;;;;;;-4.89;89.13;97645.55;1769564;81;20929;-73
2020/12/09 00:24:42;;;;;;;28.53;14.23;;;;;;;-4.89;89.33;97651.47;1769434;80;21012;-74
2020/12/09 00:27:09;;;;;;;30.03;15.57;;;;;;;-4.88;89.58;97645.55;1769529;80;21024;-74
2020/12/09 00:29:37;;;;;;;34.67;17.43;;;;;;;-4.86;89.68;97649.33;1769494;81;21391;-73
2020/12/09 00:32:05;;;;;;;33.07;15.73;;;;;;;-4.85;89.79;97643.39;1769463;80;20976;-74
2020/12/09 00:34:32;;;;;;;31.43;15.73;;;;;;;-4.79;89.89;97641.19;1769482;79;20881;-73
2020/12/09 00:37:00;;;;;;;35.40;17.10;;;;;;;-4.78;89.72;97640.31;1769534;79;20917;-74
2020/12/09 00:39:27;;;;;;;33.30;17.97;;;;;;;-4.78;89.67;97639.05;1769533;80;20985;-74
2020/12/09 00:41:54;;;;;;;31.00;15.27;;;;;;;-4.78;89.66;97644.13;1769492;80;21118;-73
2020/12/09 00:44:21;;;;;;;32.70;16.40;;;;;;;-4.76;89.58;97645.77;1769551;81;20902;-74
2020/12/09 00:46:50;;;;;;;30.50;14.73;;;;;;;-4.78;89.53;97631.44;1769505;79;21307;-73
2020/12/09 00:49:20;;;;;;;35.03;15.03;;;;;;;-4.79;89.54;97635.67;1769503;80;20976;-74
2020/12/09 00:51:47;;;;;;;31.70;16.67;;;;;;;-4.79;89.54;97622.98;1769542;80;21347;-73
2020/12/09 00:54:16;;;;;;;34.60;15.87;;;;;;;-4.78;89.68;97622.56;1769528;81;21163;-73
2020/12/09 00:56:44;;;;;;;32.87;16.30;;;;;;;-4.75;89.70;97614.87;1769404;81;21316;-74
2020/12/09 00:59:13;;;;;;;35.20;17.43;;;;;;;-4.69;89.53;97617.31;1769506;79;20937;-73
2020/12/09 01:01:40;;;;;;;33.50;15.37;;;;;;;-4.73;89.36;97610.61;1769465;79;20878;-73
2020/12/09 01:04:09;;;;;;;32.90;16.03;;;;;;;-4.75;89.37;97614.45;1769152;80;20977;-73
2020/12/09 01:06:36;;;;;;;36.97;19.40;;;;;;;-4.76;89.29;97620.82;1769500;81;21249;-74
2020/12/09 01:09:05;;;;;;;31.37;15.70;;;;;;;-4.78;89.15;97625.09;1769429;81;21328;-74
2020/12/09 01:11:32;;;;;;;35.47;17.50;;;;;;;-4.82;89.00;97604.83;1769499;80;21403;-73
2020/12/09 01:14:00;;;;;;;33.20;15.60;;;;;;;-4.85;89.02;97603.62;1769443;81;21323;-74
2020/12/09 01:16:27;;;;;;;34.20;15.63;;;;;;;-4.84;89.02;97598.13;1769352;80;21056;-73
2020/12/09 01:18:54;;;;;;;32.17;14.90;;;;;;;-4.82;88.84;97600.19;1769590;81;21836;-74
2020/12/09 01:21:29;;;;;;;34.97;17.37;;;;;;;-4.81;88.75;97600.16;1769491;81;20937;-74
2020/12/09 01:23:56;;;;;;;36.67;18.40;;;;;;;-4.77;88.64;97599.69;1769559;80;20926;-74
2020/12/09 01:26:23;;;;;;;36.43;19.00;;;;;;;-4.73;88.54;97593.67;1769538;81;20933;-74
2020/12/09 01:28:50;;;;;;;35.00;16.60;;;;;;;-4.72;88.34;97570.41;1769577;80;20934;-74
2020/12/09 01:31:22;;;;;;;31.20;15.20;;;;;;;-4.72;88.23;97591.54;1769464;79;21770;-74
2020/12/09 01:33:49;;;;;;;32.83;16.03;;;;;;;-4.68;88.20;97597.41;1769428;80;21431;-74
2020/12/09 01:36:23;;;;;;;29.80;15.73;;;;;;;-4.65;88.09;97597.34;1769405;81;21509;-73
2020/12/09 01:38:51;;;;;;;34.83;17.17;;;;;;;-4.62;87.96;97595.60;1769474;81;21307;-73
2020/12/09 01:41:19;;;;;;;32.10;16.80;;;;;;;-4.61;87.56;97600.25;1769551;81;21490;-74
2020/12/09 01:43:47;;;;;;;34.93;18.47;;;;;;;-4.64;87.55;97604.92;1769456;81;21847;-73
2020/12/09 01:46:15;;;;;;;27.10;14.20;;;;;;;-4.65;87.48;97615.11;1769389;79;21027;-74
2020/12/09 01:48:44;;;;;;;32.03;17.10;;;;;;;-4.70;87.43;97602.95;1769563;80;20914;-74
2020/12/09 01:51:13;;;;;;;29.07;15.53;;;;;;;-4.68;87.67;97602.48;1769416;81;20921;-73
2020/12/09 01:53:40;;;;;;;31.53;15.43;;;;;;;-4.66;87.85;97615.98;1769333;80;20882;-73
2020/12/09 01:56:08;;;;;;;34.27;17.80;;;;;;;-4.61;87.68;97601.52;1769379;79;21375;-73
2020/12/09 01:58:35;;;;;;;36.20;17.87;;;;;;;-4.61;87.44;97606.16;1769363;80;21437;-73
2020/12/09 02:01:02;;;;;;;28.27;14.03;;;;;;;-4.62;87.39;97607.46;1769518;79;20929;-74
2020/12/09 02:03:29;;;;;;;34.43;17.10;;;;;;;-4.63;87.41;97601.98;1769406;81;21064;-73
2020/12/09 02:05:56;;;;;;;35.70;19.57;;;;;;;-4.62;87.44;97600.68;1769426;81;21526;-73
2020/12/09 02:08:23;;;;;;;28.33;15.03;;;;;;;-4.62;87.52;97604.48;1769433;80;21695;-73
2020/12/09 02:10:59;;;;;;;28.97;13.97;;;;;;;-4.62;87.49;97600.68;1769367;81;21431;-73
2020/12/09 02:13:30;;;;;;;33.23;17.50;;;;;;;-4.63;87.59;97609.59;1769368;81;21001;-73
2020/12/09 02:15:58;;;;;;;36.87;19.80;;;;;;;-4.64;87.62;97611.27;1769367;80;20937;-73
2020/12/09 02:18:25;;;;;;;34.30;17.67;;;;;;;-4.63;87.75;97605.79;1769371;80;21521;-73
2020/12/09 02:20:52;;;;;;;36.00;19.70;;;;;;;-4.62;87.82;97615.07;1769412;80;21896;-73
2020/12/09 02:23:20;;;;;;;33.50;18.20;;;;;;;-4.63;87.77;97607.89;1769359;81;21009;-73
2020/12/09 02:25:47;;;;;;;39.77;21.57;;;;;;;-4.63;87.95;97604.52;1769404;80;21000;-73
2020/12/09 02:28:15;;;;;;;35.30;19.43;;;;;;;-4.63;88.09;97606.63;1769462;79;21114;-73
2020/12/09 02:30:42;;;;;;;35.90;19.20;;;;;;;-4.61;88.18;97604.89;1769449;80;20918;-73
2020/12/09 02:33:09;;;;;;;37.27;17.77;;;;;;;-4.59;88.17;97609.49;1769406;81;21320;-73
2020/12/09 02:35:37;;;;;;;38.67;21.90;;;;;;;-4.55;88.19;97600.11;1769288;79;21399;-73
2020/12/09 02:38:04;;;;;;;43.00;24.30;;;;;;;-4.53;88.17;97608.55;1769436;81;21067;-72
2020/12/09 02:40:31;;;;;;;40.87;22.27;;;;;;;-4.49;88.15;97601.70;1769474;81;20929;-73
2020/12/09 02:42:58;;;;;;;38.43;21.23;;;;;;;-4.54;88.04;97593.76;1769535;81;21111;-72
2020/12/09 02:45:26;;;;;;;32.23;16.37;;;;;;;-4.56;88.17;97589.55;1769364;81;21451;-72
2020/12/09 02:47:53;;;;;;;31.93;15.47;;;;;;;-4.58;88.28;97577.33;1769396;81;21323;-72
2020/12/09 02:50:20;;;;;;;33.57;17.33;;;;;;;-4.57;88.42;97591.69;1769350;81;21304;-72
2020/12/09 02:52:48;;;;;;;34.67;16.07;;;;;;;-4.52;88.67;97579.33;1769379;80;20917;-72
2020/12/09 02:55:15;;;;;;;41.13;17.83;;;;;;;-4.50;88.50;97589.44;1769362;81;21542;-72
2020/12/09 02:57:42;;;;;;;32.03;15.63;;;;;;;-4.53;88.71;97597.97;1769404;80;21677;-73
2020/12/09 03:00:09;;;;;;;34.77;16.70;;;;;;;-4.52;88.83;97603.88;1769423;80;21059;-72
2020/12/09 03:02:36;;;;;;;30.53;15.43;;;;;;;-4.50;89.00;97602.14;1769397;81;20973;-73
2020/12/09 03:05:03;;;;;;;33.47;15.87;;;;;;;-4.47;89.04;97593.18;1769404;80;20886;-73
2020/12/09 03:07:31;;;;;;;36.47;16.93;;;;;;;-4.45;88.86;97599.52;1769415;80;20922;-73
2020/12/09 03:09:58;;;;;;;33.60;16.03;;;;;;;-4.46;88.84;97586.00;1769522;81;21163;-73
2020/12/09 03:12:25;;;;;;;54.70;27.40;;;;;;;-4.45;88.93;97600.80;1769355;80;21013;-73
2020/12/09 03:14:52;;;;;;;36.63;18.27;;;;;;;-4.46;88.98;97590.24;1769399;80;20925;-73
2020/12/09 03:17:19;;;;;;;36.10;17.67;;;;;;;-4.46;89.07;97592.34;1769862;80;20941;-73
2020/12/09 03:19:48;;;;;;;38.00;17.03;;;;;;;-4.46;89.25;97601.23;1771821;80;20989;-73
2020/12/09 03:22:15;;;;;;;37.63;17.83;;;;;;;-4.44;89.35;97581.72;1771851;80;21409;-73
2020/12/09 03:24:42;;;;;;;46.33;15.97;;;;;;;-4.43;89.34;97593.97;1771853;80;20933;-73
2020/12/09 03:27:11;;;;;;;33.27;16.40;;;;;;;-4.44;89.45;97595.68;1771539;79;21323;-73
2020/12/09 03:29:39;;;;;;;46.93;22.50;;;;;;;-4.43;89.52;97595.24;1771815;79;20981;-75
2020/12/09 03:32:06;;;;;;;43.60;18.57;;;;;;;-4.43;89.52;97594.81;1771823;81;21495;-73
2020/12/09 03:34:33;;;;;;;35.00;16.53;;;;;;;-4.45;89.73;97581.31;1771855;79;21625;-73
2020/12/09 03:37:00;;;;;;;34.33;15.63;;;;;;;-4.48;89.89;97588.97;1771766;81;21329;-73
2020/12/09 03:39:27;;;;;;;30.53;15.30;;;;;;;-4.49;90.00;97588.58;1771828;80;21387;-73
2020/12/09 03:41:54;;;;;;;31.10;15.97;;;;;;;-4.48;90.24;97585.16;1771825;81;21142;-73
2020/12/09 03:44:21;;;;;;;33.63;16.30;;;;;;;-4.46;90.30;97596.59;1771841;81;20921;-73
2020/12/09 03:46:48;;;;;;;37.77;17.90;;;;;;;-4.46;90.35;97586.43;1771859;81;21192;-73
2020/12/09 03:49:16;;;;;;;40.73;19.13;;;;;;;-4.49;90.56;97581.39;1771794;80;21394;-73
2020/12/09 03:51:44;;;;;;;37.50;15.87;;;;;;;-4.51;90.71;97583.97;1771812;79;21312;-73
2020/12/09 03:54:11;;;;;;;38.00;17.77;;;;;;;-4.53;90.89;97574.28;1771822;81;21343;-73
2020/12/09 03:56:38;;;;;;;32.20;15.37;;;;;;;-4.55;91.10;97578.13;1771838;81;21398;-73
2020/12/09 03:59:06;;;;;;;34.27;15.83;;;;;;;-4.57;91.20;97573.48;1771800;81;21127;-73
2020/12/09 04:01:33;;;;;;;39.20;17.97;;;;;;;-4.55;91.50;97564.17;1771796;81;20930;-73
2020/12/09 04:04:00;;;;;;;33.07;15.23;;;;;;;-4.53;91.46;97573.84;1771927;81;20941;-73
2020/12/09 04:06:27;;;;;;;30.57;16.03;;;;;;;-4.50;91.47;97567.03;1771805;81;21391;-75
2020/12/09 04:08:54;;;;;;;40.13;19.27;;;;;;;-4.49;91.43;97578.86;1771858;81;21784;-74
2020/12/09 04:11:21;;;;;;;35.87;16.63;;;;;;;-4.48;91.41;97576.28;1771870;81;21349;-74
2020/12/09 04:13:48;;;;;;;39.87;19.50;;;;;;;-4.47;91.41;97579.22;1771742;80;21422;-74
2020/12/09 04:16:16;;;;;;;39.30;19.90;;;;;;;-4.47;91.33;97580.92;1771802;81;20961;-74
2020/12/09 04:18:44;;;;;;;35.70;18.40;;;;;;;-4.43;91.49;97584.66;1769929;80;21312;-74
2020/12/09 04:21:11;;;;;;;34.50;16.10;;;;;;;-4.39;91.33;97581.17;1769451;81;20922;-74
2020/12/09 04:23:38;;;;;;;35.23;16.63;;;;;;;-4.38;91.22;97586.68;1769588;80;21911;-74
2020/12/09 04:26:05;;;;;;;37.73;18.47;;;;;;;-4.40;91.22;97583.31;1769415;79;21147;-74
2020/12/09 04:28:32;;;;;;;39.73;18.50;;;;;;;-4.39;91.25;97578.63;1769541;80;20922;-74
2020/12/09 04:30:59;;;;;;;40.07;20.30;;;;;;;-4.38;91.34;97582.04;1769480;79;21339;-74
2020/12/09 04:33:27;;;;;;;37.80;16.97;;;;;;;-4.37;91.37;97576.92;1769501;81;20996;-74
2020/12/09 04:35:55;;;;;;;32.87;16.40;;;;;;;-4.34;91.29;97584.47;1769567;81;21043;-74
2020/12/09 04:38:23;;;;;;;37.03;16.10;;;;;;;-4.33;91.25;97581.06;1769527;81;21055;-74
2020/12/09 04:40:51;;;;;;;38.57;16.70;;;;;;;-4.32;91.31;97574.27;1769484;79;21017;-74
2020/12/09 04:43:18;;;;;;;37.20;17.87;;;;;;;-4.33;91.41;97573.88;1769480;81;21002;-74
2020/12/09 04:45:45;;;;;;;32.77;16.73;;;;;;;-4.33;91.55;97563.28;1769503;81;21024;-74
2020/12/09 04:48:14;;;;;;;34.47;16.80;;;;;;;-4.31;91.58;97576.78;1769567;80;21757;-74
2020/12/09 04:51:18;;;;;;;36.43;17.03;;;;;;;-4.31;91.39;97573.41;1769447;81;20949;-74
2020/12/09 04:53:45;;;;;;;37.30;16.93;;;;;;;-4.32;91.54;97566.22;1739038;79;21423;-73
2020/12/09 04:56:13;;;;;;;36.90;18.63;;;;;;;-4.34;91.64;97564.16;1769401;81;20926;-73
2020/12/09 04:58:46;;;;;;;43.20;18.47;;;;;;;-4.37;91.80;97569.31;1769517;81;21257;-73
2020/12/09 05:01:14;;;;;;;;;;;;;;;-4.38;91.87;97561.73;1772177;80;22190;-73
2020/12/09 05:03:45;;;;;;;36.23;16.63;;;;;;;-4.38;92.11;97575.25;1769531;79;20345;-73
2020/12/09 05:06:20;;;;;;;31.05;15.98;;;;;;;-4.36;92.24;97573.52;1769711;81;20952;-73
2020/12/09 05:08:56;;;;;;;34.13;16.73;;;;;;;-4.35;92.34;97578.16;1769452;81;20996;-73
2020/12/09 05:11:25;;;;;;;47.10;21.23;;;;;;;-4.36;92.39;97567.60;1769515;81;20914;-74
2020/12/09 05:13:58;;;;;;;38.83;16.43;;;;;;;-4.36;92.50;97570.98;1769424;81;21183;-74
2020/12/09 05:16:26;;;;;;;33.80;17.95;;;;;;;-4.33;92.55;97568.36;1769566;81;21017;-74
2020/12/09 05:19:00;;;;;;;37.83;17.53;;;;;;;-4.31;92.58;97564.08;1769404;79;20877;-74
2020/12/09 05:21:28;;;;;;;32.27;16.03;;;;;;;-4.25;92.62;97580.47;1769450;81;20984;-74
2020/12/09 05:24:00;;;;;;;38.60;18.40;;;;;;;-4.19;92.55;97579.95;1769514;79;21135;-74
2020/12/09 05:26:30;;;;;;;37.10;16.27;;;;;;;-4.19;92.46;97576.98;1769670;79;22582;-74
2020/12/09 05:29:09;;;;;;;41.53;19.40;;;;;;;-4.21;92.50;97570.27;1769415;80;21370;-74
2020/12/09 05:31:46;;;;;;;41.77;18.57;;;;;;;-4.22;92.60;97575.75;1769465;80;20989;-73
2020/12/09 05:34:33;;;;;;;40.13;19.50;;;;;;;-4.22;92.68;97576.19;1769527;81;20878;-73
2020/12/09 05:37:03;;;;;;;38.77;19.10;;;;;;;-4.19;92.71;97569.80;1769490;79;20906;-73
2020/12/09 05:39:31;;;;;;;40.33;17.87;;;;;;;-4.19;92.73;97573.17;1769489;81;21343;-73
2020/12/09 05:42:13;;;;;;;41.10;17.57;;;;;;;-4.19;92.81;97568.53;1769460;81;20982;-73
2020/12/09 05:44:45;;;;;;;36.90;16.85;;;;;;;-4.18;92.88;97568.48;1775002;80;20893;-73
2020/12/09 05:47:12;;;;;;;33.30;15.37;;;;;;;-4.14;92.75;97574.33;1769502;81;20922;-73
2020/12/09 05:49:40;;;;;;;27.27;13.90;;;;;;;-4.12;92.66;97589.12;1769409;81;21017;-73
2020/12/09 05:52:14;;;;;;;27.33;13.10;;;;;;;-4.12;92.33;97592.94;1769544;81;22044;-75
2020/12/09 05:54:52;;;;;;;33.23;15.60;;;;;;;-4.14;92.37;97593.37;1769432;81;20937;-74
2020/12/09 05:57:25;;;;;;;29.30;16.43;;;;;;;-4.14;92.35;97593.37;1785148;78;21030;-75
2020/12/09 05:59:54;;;;;;;32.73;16.27;;;;;;;-4.15;92.30;97594.25;1812676;78;21327;-76
2020/12/09 06:02:24;;;;;;;34.23;15.20;;;;;;;-4.16;92.28;97595.12;1803193;78;21100;-75
2020/12/09 06:04:59;;;;;;;39.70;18.53;;;;;;;-4.19;92.23;97592.66;1797382;78;21367;-76
2020/12/09 06:07:28;;;;;;;37.30;16.50;;;;;;;-4.15;92.39;97599.33;1793551;78;21163;-77
2020/12/09 06:10:08;;;;;;;33.47;15.90;;;;;;;-4.10;92.28;97597.54;1753036;80;21141;-75
2020/12/09 06:13:00;;;;;;;35.07;17.17;;;;;;;-4.09;92.01;97599.20;1688740;81;21202;-77
2020/12/09 06:15:31;;;;;;;32.50;14.10;;;;;;;-4.11;92.08;97609.41;1785702;79;21148;-76
2020/12/09 06:18:09;;;;;;;29.87;14.90;;;;;;;-4.05;92.18;97613.53;1787954;77;21357;-78
2020/12/09 06:20:38;;;;;;;33.80;16.83;;;;;;;-4.02;91.96;97614.73;1770393;80;21581;-78
2020/12/09 06:23:11;;;;;;;33.33;14.50;;;;;;;-4.03;91.78;97617.70;1804298;79;21017;-79
2020/12/09 06:25:39;;;;;;;31.17;13.83;;;;;;;-4.05;91.79;97616.08;1786888;79;21563;-76
2020/12/09 06:28:17;;;;;;;32.40;15.17;;;;;;;-4.07;91.92;97617.78;1771892;79;21527;-79
2020/12/09 06:30:45;;;;;;;39.43;21.43;;;;;;;-4.07;92.04;97616.52;1761075;81;21367;-79
2020/12/09 06:33:35;;;;;;;31.00;15.17;;;;;;;-4.06;92.07;97617.75;1760261;81;21245;-75
2020/12/09 06:36:30;;;;;;;29.37;15.40;;;;;;;-4.06;92.05;97605.48;1778017;79;21155;-74
2020/12/09 06:39:12;;;;;;;35.50;15.60;;;;;;;-4.06;92.17;97608.02;1778753;79;21120;-79
2020/12/09 06:41:56;;;;;;;33.78;17.60;;;;;;;-4.04;92.31;97617.74;1776176;80;21533;-83
2020/12/09 06:44:23;;;;;;;32.63;15.95;;;;;;;-4.09;92.35;97609.37;1757261;80;21419;-77
2020/12/09 06:46:52;;;;;;;33.43;16.67;;;;;;;-4.13;92.64;97623.84;1786303;79;21026;-77
2020/12/09 06:49:32;;;;;;;34.07;16.60;;;;;;;-4.14;92.91;97618.77;1778219;79;21182;-78
2020/12/09 06:52:14;;;;;;;30.13;14.83;;;;;;;-4.12;93.12;97609.44;1768165;79;21202;-78
2020/12/09 06:54:48;;;;;;;31.67;14.93;;;;;;;-4.10;93.28;97607.70;1766446;79;21096;-77
2020/12/09 06:57:28;;;;;;;30.67;14.47;;;;;;;-4.09;93.25;97623.34;1783971;78;21593;-76
2020/12/09 07:00:17;;;;;;;37.60;20.13;;;;;;;-4.13;93.26;97611.58;1770939;80;21534;-76
2020/12/09 07:02:48;;;;;;;30.13;16.03;;;;;;;-4.13;93.51;97606.50;1769719;80;21228;-78
2020/12/09 07:05:22;;;;;;;39.53;18.80;;;;;;;-4.14;93.64;97614.96;1767140;80;21183;-81
2020/12/09 07:07:51;;;;;;;35.90;18.60;;;;;;;-4.12;93.76;97617.06;1774970;80;21131;-80
2020/12/09 07:10:22;;;;;;;29.47;14.40;;;;;;;-4.11;93.81;97625.08;1776089;80;21500;-77
2020/12/09 07:12:59;;;;;;;31.53;16.30;;;;;;;-4.08;93.78;97612.30;1776319;80;21139;-78
2020/12/09 07:15:28;;;;;;;28.20;15.67;;;;;;;-4.09;93.65;97610.20;1778634;80;21024;-81
2020/12/09 07:17:56;;;;;;;31.03;15.07;;;;;;;-4.08;93.69;97616.12;1782916;79;21214;-79
2020/12/09 07:20:24;;;;;;;40.97;21.00;;;;;;;-4.07;93.65;97617.34;1772216;79;21107;-77
2020/12/09 07:22:51;;;;;;;32.00;15.33;;;;;;;-4.07;93.56;97610.16;1773765;80;21857;-79
2020/12/09 07:25:19;;;;;;;37.70;15.60;;;;;;;-4.08;93.54;97611.88;1779529;79;21126;-78
2020/12/09 07:27:46;;;;;;;32.73;17.27;;;;;;;-4.06;93.45;97608.86;1763952;80;21592;-78
2020/12/09 07:30:14;;;;;;;29.87;15.97;;;;;;;-4.04;93.54;97610.13;1760881;81;21168;-80
2020/12/09 07:32:43;;;;;;;29.10;14.07;;;;;;;-3.96;93.74;97606.98;1772693;80;21520;-80
2020/12/09 07:35:12;;;;;;;31.23;16.00;;;;;;;-3.90;93.43;97603.02;1710114;83;22229;-74
2020/12/09 07:37:51;;;;;;;38.67;21.33;;;;;;;-3.85;93.22;97601.66;1693383;82;21655;-77
2020/12/09 07:40:29;;;;;;;32.17;17.10;;;;;;;-3.80;93.06;97601.98;1719282;82;21196;-79
2020/12/09 07:43:10;;;;;;;31.43;15.27;;;;;;;-3.75;92.83;97598.88;1718337;83;21160;-80
2020/12/09 07:45:42;;;;;;;34.77;16.87;;;;;;;-3.71;92.77;97600.50;1713228;81;21168;-81
2020/12/09 07:48:15;;;;;;;34.93;15.20;;;;;;;-3.69;92.17;97603.00;1724922;81;21787;-78
2020/12/09 07:50:53;;;;;;;28.80;14.00;;;;;;;-3.70;92.00;97604.71;1734284;81;21200;-78
2020/12/09 07:53:21;;;;;;;32.97;16.97;;;;;;;-3.71;92.04;97596.69;1719697;83;21543;-78
2020/12/09 07:55:48;;;;;;;34.67;17.20;;;;;;;-3.68;91.87;97617.38;1724963;83;21148;-80
2020/12/09 07:58:17;;;;;;;51.60;26.87;;;;;;;-3.69;91.50;97616.55;1701165;81;21204;-78
2020/12/09 08:00:48;;;;;;;31.43;15.13;;;;;;;-3.71;91.43;97617.02;1696395;84;21202;-79
2020/12/09 08:03:25;;;;;;;25.33;11.63;;;;;;;-3.68;91.48;97624.57;1709788;81;21188;-78
2020/12/09 08:05:54;;;;;;;26.83;13.57;;;;;;;-3.65;91.22;97620.28;1747578;81;21149;-78
2020/12/09 08:08:23;;;;;;;32.90;17.47;;;;;;;-3.64;90.95;97633.39;1734115;81;21082;-79
2020/12/09 08:10:51;;;;;;;30.37;15.10;;;;;;;-3.65;90.79;97622.82;1716790;83;21126;-76
2020/12/09 08:13:25;;;;;;;28.27;12.90;;;;;;;-3.64;90.79;97623.22;1718808;83;21924;-78
2020/12/09 08:16:10;;;;;;;33.13;15.43;;;;;;;-3.64;90.61;97612.64;1716127;82;21108;-79
2020/12/09 08:18:36;;;;;;;27.30;12.40;;;;;;;-3.65;90.63;97619.01;1724054;81;21528;-79
2020/12/09 08:21:04;;;;;;;22.33;11.37;;;;;;;-3.64;90.40;97627.89;1784488;79;21099;-80
2020/12/09 08:23:50;;;;;;;24.87;12.63;;;;;;;-3.68;90.20;97616.94;1772099;79;21079;-79
2020/12/09 08:26:31;;;;;;;24.50;13.13;;;;;;;-3.72;90.20;97611.98;1777594;80;21610;-81
2020/12/09 08:28:58;;;;;;;27.80;14.53;;;;;;;-3.71;90.43;97615.75;1761209;81;21162;-82
2020/12/09 08:31:25;;;;;;;29.97;17.07;;;;;;;-3.71;90.27;97617.45;1760961;81;21151;-81
2020/12/09 08:33:52;;;;;;;27.83;13.70;;;;;;;-3.71;90.20;97613.65;1763459;80;21174;-79
2020/12/09 08:36:22;;;;;;;32.60;13.30;;;;;;;-3.72;90.36;97621.70;1775841;80;21171;-79
2020/12/09 08:38:51;;;;;;;26.63;14.57;;;;;;;-3.69;90.28;97605.11;1778484;80;21358;-79
2020/12/09 08:41:29;;;;;;;28.57;14.30;;;;;;;-3.69;90.20;97600.02;1771829;79;21574;-81
2020/12/09 08:44:01;;;;;;;31.00;17.60;;;;;;;-3.68;90.15;97605.94;1775046;80;21166;-80
2020/12/09 08:46:29;;;;;;;26.65;12.33;;;;;;;-3.71;90.07;97601.77;1771995;80;21502;-79
2020/12/09 08:48:57;;;;;;;27.67;12.60;;;;;;;-3.71;90.26;97598.39;1761142;80;21138;-78
2020/12/09 08:51:29;;;;;;;32.60;16.10;;;;;;;-3.71;90.36;97597.12;1769431;80;21201;-78
2020/12/09 08:53:57;;;;;;;24.85;12.35;;;;;;;-3.69;90.35;97587.75;1792436;80;21009;-78
2020/12/09 08:56:30;;;;;;;28.83;12.03;;;;;;;-3.73;90.28;97599.67;1782834;80;21807;-77
2020/12/09 08:59:01;;;;;;;24.55;13.98;;;;;;;-3.74;90.43;97594.63;1782873;79;21211;-76
2020/12/09 09:01:37;;;;;;;25.23;12.07;;;;;;;-3.73;90.52;97599.67;1771840;79;21453;-77
2020/12/09 09:04:07;;;;;;;26.90;13.73;;;;;;;-3.73;90.36;97603.48;1783968;79;22025;-81
2020/12/09 09:06:37;;;;;;;28.02;13.60;;;;;;;-3.75;90.29;97589.98;1766186;79;21147;-79
2020/12/09 09:09:06;;;;;;;31.93;13.23;;;;;;;-3.75;90.36;97588.72;1749373;80;21145;-79
2020/12/09 09:11:33;;;;;;;28.40;13.90;;;;;;;-3.76;90.21;97595.94;1748769;80;21088;-80
2020/12/09 09:14:01;;;;;;;24.40;14.73;;;;;;;-3.75;90.29;97601.42;1766178;80;21181;-80
2020/12/09 09:16:28;;;;;;;29.73;13.67;;;;;;;-3.74;90.32;97591.66;1772172;79;21313;-80
2020/12/09 09:18:55;;;;;;;29.27;15.10;;;;;;;-3.71;90.26;97590.77;1769374;80;21162;-79
2020/12/09 09:21:23;;;;;;;28.03;13.70;;;;;;;-3.68;90.13;97588.98;1769128;80;21135;-79
2020/12/09 09:23:50;;;;;;;25.07;13.40;;;;;;;-3.68;89.96;97590.25;1774897;80;21562;-76
2020/12/09 09:26:18;;;;;;;31.80;16.87;;;;;;;-3.71;89.91;97589.06;1774889;80;21163;-77
2020/12/09 09:28:46;;;;;;;27.93;13.27;;;;;;;-3.71;90.24;97591.61;1777540;79;21589;-79
2020/12/09 09:31:15;;;;;;;28.87;14.43;;;;;;;-3.71;90.21;97588.23;1764157;80;21131;-76
2020/12/09 09:33:42;;;;;;;26.30;13.43;;;;;;;-3.71;90.30;97597.96;1773940;80;21124;-78
2020/12/09 09:36:11;;;;;;;29.87;14.97;;;;;;;-3.71;90.25;97580.61;1766052;80;21578;-77
2020/12/09 09:38:38;;;;;;;32.23;16.97;;;;;;;-3.72;90.44;97579.77;1776487;80;21190;-79
2020/12/09 09:41:05;;;;;;;30.77;16.43;;;;;;;-3.71;90.48;97576.36;1777174;80;21178;-79
2020/12/09 09:43:35;;;;;;;73.27;39.77;;;;;;;-3.70;90.70;97567.02;1775168;79;21586;-77
2020/12/09 09:46:02;;;;;;;30.43;16.13;;;;;;;-3.65;90.78;97575.80;1773937;80;21120;-80
2020/12/09 09:48:29;;;;;;;39.23;22.50;;;;;;;-3.60;90.55;97581.19;1773648;80;21147;-79
2020/12/09 09:50:56;;;;;;;29.87;14.93;;;;;;;-3.60;90.49;97576.53;1772448;80;21088;-77
2020/12/09 09:53:24;;;;;;;27.67;13.20;;;;;;;-3.57;90.56;97567.56;1771711;80;21786;-79
2020/12/09 09:55:51;;;;;;;31.37;14.77;;;;;;;-3.60;90.23;97562.55;1773754;80;21123;-77
2020/12/09 09:58:18;;;;;;;27.83;15.97;;;;;;;-3.61;90.38;97573.16;1786176;80;21507;-79
2020/12/09 10:00:45;;;;;;;36.33;15.30;;;;;;;-3.58;90.29;97570.97;1779667;80;21151;-81
2020/12/09 10:03:13;;;;;;;34.40;19.37;;;;;;;-3.57;89.93;97549.77;1778265;80;21182;-82
2020/12/09 10:05:41;;;;;;;30.37;15.83;;;;;;;-3.57;89.76;97563.30;1776333;80;21044;-81
2020/12/09 10:08:09;;;;;;;28.17;15.63;;;;;;;-3.53;89.77;97570.45;1754553;80;21457;-82
2020/12/09 10:10:36;;;;;;;36.07;16.20;;;;;;;-3.47;89.67;97563.95;1776705;79;21112;-79
2020/12/09 10:13:03;;;;;;;30.17;18.30;;;;;;;-3.43;89.13;97570.62;1773591;80;21557;-79
2020/12/09 10:15:31;;;;;;;25.67;14.70;;;;;;;-3.46;88.66;97560.53;1774149;80;21202;-81
2020/12/09 10:18:00;;;;;;;26.70;13.03;;;;;;;-3.48;88.79;97548.27;1775492;80;21364;-80
2020/12/09 10:20:27;;;;;;;27.57;13.97;;;;;;;-3.48;88.78;97545.73;1791014;79;21164;-79
2020/12/09 10:22:54;;;;;;;31.83;14.83;;;;;;;-3.51;88.29;97553.00;1768547;79;21248;-80
2020/12/09 10:25:23;;;;;;;29.60;13.83;;;;;;;-3.55;88.38;97555.67;1791609;79;21056;-79
2020/12/09 10:27:53;;;;;;;32.87;15.73;;;;;;;-3.56;88.32;97540.82;1787668;78;21103;-75
2020/12/09 10:30:32;;;;;;;28.03;13.33;;;;;;;-3.59;88.32;97543.45;1770156;79;21323;-77
2020/12/09 10:33:46;;;;;;;25.63;13.13;;;;;;;-3.63;88.14;97537.22;1790231;79;21458;-77
2020/12/09 10:36:25;;;;;;;30.17;15.47;;;;;;;-3.71;88.32;97538.23;1766770;79;21108;-77
2020/12/09 10:39:03;;;;;;;35.60;19.80;;;;;;;-3.70;88.39;97536.52;1796523;78;21391;-76
2020/12/09 10:41:30;;;;;;;33.50;17.00;;;;;;;-3.68;88.32;97548.31;1777305;79;21155;-76
2020/12/09 10:43:59;;;;;;;31.60;15.27;;;;;;;-3.62;88.10;97546.52;1780546;79;21400;-78
2020/12/09 10:46:31;;;;;;;25.70;12.80;;;;;;;-3.56;87.80;97558.62;1793442;78;21150;-82
2020/12/09 10:49:00;;;;;;;30.70;17.15;;;;;;;-3.55;87.35;97539.98;1782492;79;28185;-79
2020/12/09 10:51:27;;;;;;;27.77;12.60;;;;;;;-3.58;87.04;97535.39;1768520;81;21004;-78
2020/12/09 10:53:56;;;;;;;23.97;12.50;;;;;;;-3.63;87.13;97552.03;1774631;78;21123;-79
2020/12/09 10:56:33;;;;;;;28.23;12.43;;;;;;;-3.65;86.97;97551.64;1782787;78;22138;-79
2020/12/09 10:59:01;;;;;;;26.70;13.13;;;;;;;-3.67;87.06;97542.80;1788467;78;21069;-78
2020/12/09 11:01:32;;;;;;;27.80;13.80;;;;;;;-3.68;86.78;97533.50;1723459;81;21185;-78
2020/12/09 11:04:00;;;;;;;26.30;13.10;;;;;;;-3.70;86.54;97539.90;1729514;81;21209;-76
2020/12/09 11:06:34;;;;;;;27.60;12.47;;;;;;;-3.69;86.68;97533.94;1717388;82;21597;-80
2020/12/09 11:09:11;;;;;;;28.20;13.40;;;;;;;-3.68;86.40;97536.88;1706063;81;21157;-77
2020/12/09 11:11:45;;;;;;;23.57;13.00;;;;;;;-3.67;86.38;97529.64;1717432;83;21160;-77
2020/12/09 11:14:09;;;;;;;34.83;16.70;;;;;;;-3.68;85.97;97527.14;1702144;84;21034;-78
2020/12/09 11:16:37;;;;;;;31.13;13.83;;;;;;;-3.66;86.14;97526.66;1728906;81;21268;-80
2020/12/09 11:19:04;;;;;;;27.63;14.30;;;;;;;-3.60;85.95;97535.42;1724225;81;21181;-79
2020/12/09 11:21:31;;;;;;;30.97;14.70;;;;;;;-3.55;85.62;97530.25;1747348;81;21871;-80
2020/12/09 11:23:59;;;;;;;27.83;14.60;;;;;;;-3.50;85.35;97542.39;1729901;80;21113;-79
2020/12/09 11:26:27;;;;;;;27.03;14.30;;;;;;;-3.47;85.00;97541.06;1781281;78;21155;-79
2020/12/09 11:28:54;;;;;;;28.53;15.03;;;;;;;-3.45;84.06;97540.15;1769568;79;21045;-81
2020/12/09 11:31:24;;;;;;;29.50;13.33;;;;;;;-3.47;83.27;97533.44;1794934;79;21123;-77